createdAt,value
2022-08-08T00:00:53.279Z,2.87
2022-08-08T00:06:07.891Z,3.10
2022-08-08T00:11:46.720Z,3.33
2022-08-08T00:17:02.753Z,3.47
2022-08-08T00:22:22.603Z,4.40
2022-08-08T00:27:32.876Z,3.70
2022-08-08T00:32:50.199Z,3.60
2022-08-08T00:38:32.507Z,4.03
2022-08-08T00:44:29.040Z,4.10
2022-08-08T00:49:42.819Z,5.23
2022-08-08T00:55:22.292Z,4.93
2022-08-08T01:00:54.687Z,5.27
2022-08-08T01:06:27.158Z,3.87
2022-08-08T01:11:37.751Z,5.20
2022-08-08T01:17:03.241Z,4.67
2022-08-08T01:22:50.516Z,4.17
2022-08-08T01:28:18.060Z,4.03
2022-08-08T01:33:53.945Z,4.07
2022-08-08T01:39:28.747Z,4.00
2022-08-08T01:45:23.540Z,3.60
2022-08-08T01:50:52.371Z,3.53
2022-08-08T01:56:34.465Z,4.20
2022-08-08T02:02:07.376Z,3.57
2022-08-08T02:07:50.559Z,3.63
2022-08-08T02:13:06.898Z,4.07
2022-08-08T02:18:31.615Z,3.50
2022-08-08T02:23:45.721Z,4.07
2022-08-08T02:29:35.842Z,3.93
2022-08-08T02:35:08.023Z,3.70
2022-08-08T02:40:55.693Z,4.30
2022-08-08T02:46:20.040Z,4.63
2022-08-08T02:51:38.977Z,4.63
2022-08-08T02:57:12.122Z,4.60
2022-08-08T03:02:50.634Z,5.20
2022-08-08T03:08:28.503Z,4.40
2022-08-08T03:16:01.433Z,4.60
2022-08-08T03:19:23.676Z,4.43
2022-08-08T03:24:26.152Z,5.33
2022-08-08T03:29:51.235Z,5.00
2022-08-08T03:34:58.806Z,5.17
2022-08-08T03:40:03.942Z,4.17
2022-08-08T03:46:04.807Z,4.73
2022-08-08T03:50:52.732Z,4.60
2022-08-08T03:56:04.374Z,5.17
2022-08-08T04:01:24.329Z,4.40
2022-08-08T04:06:31.603Z,5.27
2022-08-08T04:11:59.012Z,4.50
2022-08-08T04:17:45.647Z,5.70
2022-08-08T04:22:43.389Z,5.47
2022-08-08T04:28:02.377Z,4.90
2022-08-08T04:33:10.075Z,5.03
2022-08-08T04:38:21.829Z,4.90
2022-08-08T04:43:32.514Z,4.70
2022-08-08T04:48:53.187Z,4.17
2022-08-08T04:54:38.953Z,6.23
2022-08-08T04:59:18.604Z,4.90
2022-08-08T05:04:28.635Z,5.40
2022-08-08T05:09:31.754Z,5.80
2022-08-08T05:14:39.434Z,6.60
2022-08-08T05:20:09.883Z,5.63
2022-08-08T05:25:10.713Z,5.90
2022-08-08T05:30:13.350Z,6.33
2022-08-08T05:35:25.403Z,6.90
2022-08-08T05:40:33.243Z,5.53
2022-08-08T05:45:43.246Z,6.20
2022-08-08T05:50:58.975Z,5.27
2022-08-08T05:56:17.310Z,5.20
2022-08-08T06:01:56.142Z,5.27
2022-08-08T06:06:48.130Z,4.43
2022-08-08T06:11:57.355Z,4.33
2022-08-08T06:17:01.642Z,3.83
2022-08-08T06:22:37.270Z,3.70
2022-08-08T06:27:56.289Z,3.33
2022-08-08T06:33:02.252Z,3.33
2022-08-08T06:38:09.344Z,6.13
2022-08-08T06:43:33.811Z,2.92
2022-08-08T06:48:39.043Z,3.95
2022-08-08T06:53:50.853Z,5.28
2022-08-08T06:59:00.414Z,3.05
2022-08-08T07:04:37.248Z,3.30
2022-08-08T07:09:45.586Z,2.30
2022-08-08T07:15:23.459Z,2.45
2022-08-08T07:20:54.330Z,2.00
2022-08-08T07:26:02.687Z,1.92
2022-08-08T07:31:06.629Z,1.80
2022-08-08T07:36:17.210Z,2.20
2022-08-08T07:41:25.237Z,1.80
2022-08-08T07:46:31.877Z,1.75
2022-08-08T07:51:53.321Z,1.95
2022-08-08T07:57:03.452Z,1.60
2022-08-08T08:02:36.909Z,1.58
2022-08-08T08:07:43.000Z,1.52
2022-08-08T08:12:57.897Z,1.83
2022-08-08T08:18:06.214Z,2.28
2022-08-08T08:23:17.682Z,2.25
2022-08-08T08:28:24.318Z,1.60
2022-08-08T08:33:33.241Z,1.67
2022-08-08T08:38:38.561Z,2.00
2022-08-08T08:44:13.393Z,1.17
2022-08-08T08:49:50.923Z,1.10
2022-08-08T08:54:58.666Z,1.20
2022-08-08T09:00:05.552Z,1.00
2022-08-08T09:05:13.908Z,1.00
2022-08-08T09:10:33.246Z,1.00
2022-08-08T09:15:41.732Z,1.35
2022-08-08T09:22:01.169Z,1.10
2022-08-08T09:26:27.018Z,1.63
2022-08-08T09:31:42.371Z,1.40
2022-08-08T09:37:57.007Z,1.55
2022-08-08T09:43:06.824Z,1.38
2022-08-08T09:48:26.957Z,1.50
2022-08-08T09:54:03.361Z,1.30
2022-08-08T09:59:50.471Z,1.55
2022-08-08T10:04:41.938Z,1.23
2022-08-08T10:09:59.687Z,1.33
2022-08-08T10:15:18.291Z,1.40
2022-08-08T10:20:40.188Z,1.38
2022-08-08T10:25:56.064Z,1.63
2022-08-08T10:31:46.692Z,1.50
2022-08-08T10:36:46.670Z,1.20
2022-08-08T10:41:58.904Z,1.60
2022-08-08T10:47:21.236Z,1.40
2022-08-08T10:52:33.216Z,1.42
2022-08-08T10:57:50.729Z,1.25
2022-08-08T11:02:56.582Z,1.25
2022-08-08T11:08:37.138Z,1.65
2022-08-08T11:13:31.961Z,1.65
2022-08-08T11:18:38.108Z,1.60
2022-08-08T11:23:44.192Z,1.40
2022-08-08T11:28:47.173Z,1.50
2022-08-08T11:34:02.998Z,1.73
2022-08-08T11:39:10.820Z,1.48
2022-08-08T11:44:15.939Z,1.30
2022-08-08T11:49:19.042Z,1.35
2022-08-08T11:54:44.538Z,1.73
2022-08-08T12:00:05.882Z,1.55
2022-08-08T12:05:19.068Z,1.55
2022-08-08T12:10:30.234Z,2.05
2022-08-08T12:15:39.978Z,1.60
2022-08-08T12:20:46.027Z,1.33
2022-08-08T12:25:55.001Z,1.40
2022-08-08T12:31:07.000Z,1.70
2022-08-08T12:36:14.376Z,1.60
2022-08-08T12:41:35.134Z,1.70
2022-08-08T12:47:00.254Z,1.40
2022-08-08T12:52:05.266Z,1.77
2022-08-08T12:57:29.088Z,2.22
2022-08-08T13:02:36.156Z,1.40
2022-08-08T13:08:02.887Z,1.13
2022-08-08T13:13:05.963Z,1.33
2022-08-08T13:18:14.105Z,1.25
2022-08-08T13:23:36.174Z,1.50
2022-08-08T13:28:46.028Z,1.35
2022-08-08T13:33:54.411Z,3.00
2022-08-08T13:38:59.302Z,9.82
2022-08-08T13:44:03.055Z,3.25
2022-08-08T13:50:33.805Z,3.03
2022-08-08T13:54:49.589Z,2.42
2022-08-08T14:00:08.254Z,1.90
2022-08-08T14:05:22.014Z,1.70
2022-08-08T14:10:33.475Z,1.80
2022-08-08T14:15:46.353Z,1.40
2022-08-08T14:21:02.634Z,1.23
2022-08-08T14:26:11.000Z,1.52
2022-08-08T14:31:23.235Z,1.30
2022-08-08T14:36:40.542Z,7.10
2022-08-08T14:41:53.548Z,1.60
2022-08-08T14:47:01.198Z,1.60
2022-08-08T14:52:08.717Z,3.65
2022-08-08T14:57:11.155Z,12.95
2022-08-08T15:02:15.533Z,2.38
2022-08-08T15:07:21.435Z,2.70
2022-08-08T15:12:27.602Z,1.80
2022-08-08T15:17:30.396Z,1.40
2022-08-08T15:22:34.985Z,1.50
2022-08-08T15:28:04.814Z,6.95
2022-08-08T15:33:00.264Z,19.35
2022-08-08T15:38:09.891Z,19.48
2022-08-08T15:43:18.737Z,2.67
2022-08-08T15:48:38.955Z,1.63
2022-08-08T15:53:50.158Z,8.32
2022-08-08T15:58:53.102Z,3.53
2022-08-08T16:03:56.225Z,13.25
2022-08-08T16:13:00.978Z,14.70
2022-08-08T16:14:33.309Z,5.22
2022-08-08T16:19:57.099Z,3.10
2022-08-08T16:24:58.899Z,1.52
2022-08-08T16:30:14.646Z,1.67
2022-08-08T16:35:22.961Z,1.55
2022-08-08T16:40:25.783Z,1.98
2022-08-08T16:46:43.735Z,1.40
2022-08-08T16:50:54.670Z,2.22
2022-08-08T16:56:00.505Z,1.75
2022-08-08T17:01:11.192Z,1.52
2022-08-08T17:06:36.363Z,1.70
2022-08-08T17:11:48.570Z,1.70
2022-08-08T17:16:58.790Z,2.72
2022-08-08T17:22:09.734Z,1.90
2022-08-08T17:27:12.110Z,1.90
2022-08-08T17:32:15.400Z,2.00
2022-08-08T17:37:19.589Z,1.60
2022-08-08T17:42:22.065Z,1.50
2022-08-08T17:47:28.154Z,1.60
2022-08-08T17:52:43.565Z,2.10
2022-08-08T17:57:52.890Z,2.95
2022-08-08T18:03:07.889Z,1.52
2022-08-08T18:08:24.007Z,3.20
2022-08-08T18:13:41.632Z,2.80
2022-08-08T18:18:52.430Z,2.40
2022-08-08T18:23:57.987Z,2.72
2022-08-08T18:29:02.019Z,5.38
2022-08-08T18:34:18.650Z,3.20
2022-08-08T18:39:30.078Z,2.30
2022-08-08T18:44:35.828Z,2.17
2022-08-08T18:49:57.842Z,3.33
2022-08-08T18:55:10.826Z,3.30
2022-08-08T19:00:20.372Z,5.18
2022-08-08T19:05:30.448Z,17.30
2022-08-08T19:10:37.564Z,4.78
2022-08-08T19:15:44.500Z,5.60
2022-08-08T19:20:47.191Z,4.65
2022-08-08T19:26:20.403Z,3.78
2022-08-08T19:31:13.146Z,6.18
2022-08-08T19:36:25.054Z,6.75
2022-08-08T19:41:33.603Z,5.20
2022-08-08T19:46:36.278Z,5.28
2022-08-08T19:51:41.374Z,8.45
2022-08-08T19:56:49.248Z,8.18
2022-08-08T20:02:01.399Z,8.07
2022-08-08T20:08:28.909Z,5.72
2022-08-08T20:12:32.713Z,6.60
2022-08-08T20:17:40.420Z,6.30
2022-08-08T20:22:44.680Z,7.28
2022-08-08T20:27:50.578Z,8.10
2022-08-08T20:32:56.637Z,6.75
2022-08-08T20:37:59.849Z,5.15
2022-08-08T20:43:16.220Z,4.65
2022-08-08T20:48:26.110Z,8.45
2022-08-08T20:53:59.584Z,7.35
2022-08-08T20:58:53.107Z,7.72
2022-08-08T21:03:59.992Z,9.68
2022-08-08T21:09:04.441Z,8.88
2022-08-08T21:14:07.616Z,11.80
2022-08-08T21:19:10.930Z,11.65
2022-08-08T21:24:26.955Z,8.32
2022-08-08T21:30:05.299Z,8.82
2022-08-08T21:34:56.630Z,9.23
2022-08-08T21:39:59.416Z,11.52
2022-08-08T21:45:44.076Z,11.27
2022-08-08T21:50:25.202Z,9.48
2022-08-08T21:56:19.421Z,18.40
2022-08-08T22:00:50.192Z,24.25
2022-08-08T22:05:58.496Z,18.42
2022-08-08T22:11:00.886Z,13.65
2022-08-08T22:16:04.974Z,9.82
2022-08-08T22:21:14.157Z,12.50
2022-08-08T22:26:29.154Z,16.85
2022-08-08T22:31:35.090Z,7.50
2022-08-08T22:36:37.921Z,9.15
2022-08-08T22:41:41.656Z,11.48
2022-08-08T22:46:45.736Z,9.00
2022-08-08T22:51:48.370Z,8.07
2022-08-08T22:56:50.966Z,7.57
2022-08-08T23:02:02.711Z,5.82
2022-08-08T23:07:06.525Z,5.80
2022-08-08T23:12:28.556Z,6.22
2022-08-08T23:17:31.291Z,4.63
2022-08-08T23:22:49.019Z,4.25
2022-08-08T23:27:54.259Z,3.90
2022-08-08T23:32:57.206Z,4.37
2022-08-08T23:38:03.871Z,5.00
2022-08-08T23:43:06.537Z,4.73
2022-08-08T23:49:05.198Z,5.47
2022-08-08T23:53:56.069Z,5.40
2022-08-08T23:58:55.387Z,5.47
